Time;durP1;ratioP1;P1;durP2;ratioP2;P2;SDS_P1;SDS_P2;PMS_P1;PMS_P2;Temp;Humidity;BMP_temperature;BMP_pressure;BME280_temperature;BME280_humidity;BME280_pressure;Samples;Min_cycle;Max_cycle;Signal;HPM_P1;HPM_P2
2023/07/13 07:47:35;;;;;;;11.43;6.23;;;;;;;-143.84;48.45;44883.41;5131584;27;20850;-65
2023/07/13 07:50:02;;;;;;;13.30;6.57;;;;;;;-143.84;48.48;44835.81;5131297;27;20482;-65
2023/07/13 07:52:29;;;;;;;20.50;8.00;;;;;;;-143.84;48.60;44845.31;5131287;27;20446;-65
2023/07/13 07:54:56;;;;;;;13.73;7.03;;;;;;;-143.84;48.76;44881.50;5131170;27;20438;-65
2023/07/13 07:57:24;;;;;;;11.50;7.03;;;;;;;-143.84;50.23;44887.22;5131051;27;20948;-65
2023/07/13 07:59:51;;;;;;;18.70;7.43;;;;;;;-143.84;48.09;44866.28;5131286;27;20438;-65
2023/07/13 08:02:18;;;;;;;8.10;7.30;;;;;;;-143.84;49.24;44885.31;5130966;27;20987;-65
2023/07/13 08:04:47;;;;;;;11.50;7.40;;;;;;;-143.84;49.20;44889.13;5130885;27;20840;-65
2023/07/13 08:41:33;;;;;;;18.87;13.23;;;;;;;-143.84;49.62;44866.28;5130499;27;20410;-65
2023/07/13 08:44:03;;;;;;;29.47;14.97;;;;;;;-143.84;49.17;44889.13;5130253;27;20449;-65
2023/07/13 08:46:37;;;;;;;11.67;8.83;;;;;;;-143.84;48.51;44881.50;5116817;27;20483;-65
2023/07/13 08:49:10;;;;;;;16.23;9.27;;;;;;;-143.84;48.79;44852.94;5110255;28;20487;-65
2023/07/13 08:51:44;;;;;;;12.17;9.27;;;;;;;-143.84;48.74;44868.19;5109865;28;20474;-65
2023/07/13 08:54:22;;;;;;;12.60;9.77;;;;;;;-143.84;47.26;44868.19;5109695;28;20449;-65
2023/07/13 08:56:53;;;;;;;12.03;9.47;;;;;;;-143.84;48.53;44868.19;5109531;28;20439;-65
2023/07/13 08:59:25;;;;;;;10.07;8.53;;;;;;;-143.84;46.52;44881.50;5109833;28;20516;-66
2023/07/13 09:02:16;;;;;;;15.33;8.00;;;;;;;-143.84;46.83;44866.28;5109505;28;20445;-65
2023/07/13 09:04:49;;;;;;;12.00;8.50;;;;;;;-143.84;45.57;44879.59;5109530;28;20436;-65
2023/07/13 09:07:30;;;;;;;9.50;8.63;;;;;;;-143.84;45.75;44887.22;5109501;28;20504;-65
2023/07/13 09:10:08;;;;;;;16.43;8.63;;;;;;;-143.84;45.28;44873.88;5109169;28;20478;-65
2023/07/13 09:12:47;;;;;;;10.77;9.63;;;;;;;-143.84;44.61;44871.97;5109440;28;20492;-65
2023/07/13 09:15:25;;;;;;;10.60;9.40;;;;;;;-143.84;43.93;44889.13;5109209;28;20500;-65
2023/07/13 09:17:55;;;;;;;9.57;8.27;;;;;;;-143.84;44.75;44892.94;5109056;28;20461;-65
2023/07/13 09:20:27;;;;;;;19.30;10.40;;;;;;;-143.84;43.13;44854.84;5108860;28;20451;-65
2023/07/13 09:22:57;;;;;;;15.17;10.87;;;;;;;-143.84;42.60;44902.44;5109171;28;20442;-65
2023/07/13 09:25:30;;;;;;;13.87;11.60;;;;;;;-143.84;41.70;44885.31;5109214;28;20432;-65
2023/07/13 09:28:03;;;;;;;14.17;10.13;;;;;;;-143.84;42.59;44891.03;5110226;28;20440;-65
2023/07/13 09:30:44;;;;;;;13.73;10.43;;;;;;;-143.84;42.19;44866.28;5113053;28;20514;-65
2023/07/13 09:33:11;;;;;;;11.60;10.47;;;;;;;-143.84;42.12;44887.22;5112823;28;20435;-65
2023/07/13 09:35:38;;;;;;;17.70;10.67;;;;;;;-143.84;42.85;44906.25;5112972;28;20953;-65
2023/07/13 09:38:13;;;;;;;11.83;10.73;;;;;;;-143.84;41.96;44881.50;5112521;28;20447;-65
2023/07/13 09:40:58;;;;;;;18.67;11.00;;;;;;;-143.84;42.74;44898.66;5112421;28;20521;-65
2023/07/13 09:43:28;;;;;;;12.90;10.20;;;;;;;-143.84;41.29;44885.31;5113021;28;20439;-66
2023/07/13 09:45:56;;;;;;;18.33;10.97;;;;;;;-143.84;41.62;44858.66;5112527;28;20566;-65
2023/07/13 09:48:24;;;;;;;34.37;12.90;;;;;;;-143.84;41.29;44881.50;5112997;28;20435;-65
2023/07/13 09:50:57;;;;;;;20.23;12.63;;;;;;;-143.84;40.73;44883.41;5112823;28;20980;-65
2023/07/13 09:53:24;;;;;;;16.70;13.17;;;;;;;-143.84;41.37;44904.34;5112786;28;20437;-65
2023/07/13 09:55:51;;;;;;;30.63;14.47;;;;;;;-143.84;42.41;44849.13;5112947;28;20530;-65
2023/07/13 09:58:22;;;;;;;38.53;12.93;;;;;;;-143.84;42.45;44879.59;5113037;28;20493;-65
2023/07/13 10:00:59;;;;;;;18.20;9.70;;;;;;;-143.84;42.23;44898.66;5113021;28;20443;-65
2023/07/13 10:03:28;;;;;;;11.33;10.10;;;;;;;-143.84;41.43;44885.31;5112706;28;20527;-65
2023/07/13 10:05:55;;;;;;;19.47;11.20;;;;;;;-143.84;42.58;44877.69;5112592;28;20440;-65
2023/07/13 10:08:27;;;;;;;97.80;16.27;;;;;;;-143.84;41.41;44885.31;5112590;28;20454;-65
2023/07/13 10:10:59;;;;;;;16.80;10.43;;;;;;;-143.84;40.63;44889.13;5112328;28;21010;-65
2023/07/13 10:13:36;;;;;;;21.47;11.90;;;;;;;-143.84;42.49;44877.69;5112699;28;20439;-65
2023/07/13 10:16:07;;;;;;;16.43;10.33;;;;;;;-143.84;41.97;44868.19;5112684;28;20442;-65
2023/07/13 10:18:41;;;;;;;12.27;10.67;;;;;;;-143.84;41.11;44906.25;5112312;28;20439;-65
2023/07/13 10:21:14;;;;;;;21.07;11.23;;;;;;;-143.84;41.04;44887.22;5112190;28;20472;-65
2023/07/13 10:23:44;;;;;;;17.77;11.07;;;;;;;-143.84;41.40;44873.88;5112398;28;21048;-65
2023/07/13 10:26:19;;;;;;;11.30;10.13;;;;;;;-143.84;41.72;44885.31;5112272;28;20439;-66
2023/07/13 10:28:52;;;;;;;17.30;10.80;;;;;;;-143.84;41.87;44864.38;5112361;28;20495;-66
2023/07/13 10:31:22;;;;;;;15.37;10.87;;;;;;;-143.84;42.29;44891.03;5112410;28;20491;-66
2023/07/13 10:33:49;;;;;;;11.90;10.33;;;;;;;-143.84;42.96;44854.84;5112012;28;20447;-66
2023/07/13 10:36:24;;;;;;;11.57;10.37;;;;;;;-143.84;42.82;44866.28;5112314;28;20522;-65
2023/07/13 10:38:54;;;;;;;11.07;10.00;;;;;;;-143.84;41.35;44873.88;5111624;28;20442;-65
2023/07/13 10:41:25;;;;;;;12.37;10.13;;;;;;;-143.84;41.67;44875.78;5111813;28;20447;-65
2023/07/13 10:43:54;;;;;;;12.30;11.10;;;;;;;-143.84;41.97;44871.97;5112537;28;20436;-66
2023/07/13 10:46:26;;;;;;;12.53;11.33;;;;;;;-143.84;42.42;44875.78;5112056;28;20507;-65
2023/07/13 10:48:56;;;;;;;12.93;10.90;;;;;;;-143.84;42.99;44875.78;5111851;28;20458;-65
2023/07/13 10:51:24;;;;;;;17.13;10.97;;;;;;;-143.84;41.36;44862.47;5111638;28;20471;-65
2023/07/13 10:54:15;;;;;;;11.00;10.00;;;;;;;-143.84;41.88;44889.13;5112114;28;20496;-65
2023/07/13 10:56:42;;;;;;;11.93;10.70;;;;;;;-143.84;41.46;44887.22;5112076;28;20542;-65
2023/07/13 10:59:15;;;;;;;12.90;10.87;;;;;;;-143.84;41.14;44881.50;5111798;28;20505;-65
2023/07/13 11:01:52;;;;;;;15.63;10.57;;;;;;;-143.84;41.43;44892.94;5111899;28;20465;-65
2023/07/13 11:04:21;;;;;;;12.67;10.83;;;;;;;-143.84;41.28;44885.31;5111941;28;20447;-65
2023/07/13 11:06:52;;;;;;;12.57;11.00;;;;;;;-143.84;41.66;44885.31;5111529;28;20440;-65
2023/07/13 11:09:36;;;;;;;13.60;9.53;;;;;;;-143.84;41.11;44879.59;5111141;28;20439;-65
2023/07/13 11:12:09;;;;;;;11.53;10.33;;;;;;;-143.84;43.37;44889.13;5108397;28;20459;-64
2023/07/13 11:14:38;;;;;;;12.70;10.37;;;;;;;-143.84;42.87;44862.47;5110352;28;20528;-64
2023/07/13 11:17:36;;;;;;;14.13;10.97;;;;;;;-143.84;42.07;44887.22;5110573;28;20475;-64
2023/07/13 11:20:21;;;;;;;18.83;11.37;;;;;;;-143.84;41.87;44885.31;5110787;28;20953;-64
2023/07/13 11:22:51;;;;;;;10.93;9.83;;;;;;;-143.84;42.48;44858.66;5110616;28;20504;-64
2023/07/13 11:25:30;;;;;;;12.40;11.17;;;;;;;-143.84;43.35;44889.13;5111359;28;20838;-64
2023/07/13 11:28:18;;;;;;;13.23;10.60;;;;;;;-143.84;42.91;44911.97;5111357;28;20439;-64
2023/07/13 11:30:49;;;;;;;12.97;11.77;;;;;;;-143.84;45.02;44889.13;5111227;28;21348;-64
2023/07/13 11:33:20;;;;;;;19.63;10.93;;;;;;;-143.84;43.65;44911.97;5111178;28;20435;-64
2023/07/13 11:35:54;;;;;;;12.23;10.33;;;;;;;-143.84;43.60;44877.69;5111019;28;20448;-64
2023/07/13 11:38:24;;;;;;;14.80;11.00;;;;;;;-143.84;43.70;44883.41;5110985;28;20447;-64
2023/07/13 11:40:55;;;;;;;11.50;10.40;;;;;;;-143.84;42.96;44906.25;5110882;28;20493;-64
2023/07/13 11:43:24;;;;;;;17.80;11.87;;;;;;;-143.84;43.02;44889.13;5111129;28;20501;-64
2023/07/13 11:45:52;;;;;;;22.17;11.60;;;;;;;-143.84;43.78;44864.38;5110495;28;20483;-64
2023/07/13 11:48:31;;;;;;;13.70;10.90;;;;;;;-143.84;44.28;44891.03;5110887;28;20435;-64
2023/07/13 11:51:02;;;;;;;13.33;11.93;;;;;;;-143.84;44.48;44896.75;5110818;28;20486;-64
2023/07/13 11:53:36;;;;;;;12.77;11.43;;;;;;;-143.84;44.46;44911.97;5111064;28;20448;-64
2023/07/13 11:56:03;;;;;;;13.43;11.20;;;;;;;-143.84;45.68;44892.94;5110639;28;20468;-64
2023/07/13 11:58:31;;;;;;;23.67;11.83;;;;;;;-143.84;47.62;44921.50;5110749;28;20500;-64
2023/07/13 12:01:04;;;;;;;15.40;12.50;;;;;;;-143.84;47.29;44883.41;5110582;28;20476;-64
2023/07/13 12:03:34;;;;;;;14.70;10.87;;;;;;;-143.84;46.34;44910.06;5107496;28;20548;-64
2023/07/13 12:06:05;;;;;;;12.63;11.00;;;;;;;-143.84;46.31;44900.53;5090071;28;20447;-64
2023/07/13 12:08:38;;;;;;;12.40;11.10;;;;;;;-143.84;48.21;44934.81;5090170;28;20449;-64
2023/07/13 12:11:15;;;;;;;15.67;10.90;;;;;;;-143.84;46.96;44915.78;5089790;28;21009;-64
2023/07/13 12:13:43;;;;;;;11.53;10.43;;;;;;;-143.84;47.99;44910.06;5089872;28;20440;-64
2023/07/13 12:16:15;;;;;;;21.97;12.17;;;;;;;-143.84;50.11;44927.19;5090056;28;20432;-64
2023/07/13 12:18:47;;;;;;;26.20;11.93;;;;;;;-143.84;50.24;44902.44;5089982;28;21381;-64
2023/07/13 12:21:18;;;;;;;35.93;12.67;;;;;;;-143.84;50.90;44885.31;5089995;28;20870;-64
2023/07/13 12:23:49;;;;;;;14.27;12.00;;;;;;;-143.84;47.95;44915.78;5089963;28;20437;-64
2023/07/13 12:26:18;;;;;;;21.23;12.10;;;;;;;-143.84;50.47;44927.19;5089768;28;20452;-64
2023/07/13 12:28:48;;;;;;;32.73;12.17;;;;;;;-143.84;51.34;44913.88;5089585;28;20437;-64
2023/07/13 12:31:33;;;;;;;15.90;12.83;;;;;;;-143.84;49.76;44889.13;5089589;28;20480;-64
2023/07/13 12:34:04;;;;;;;13.07;10.70;;;;;;;-143.84;50.67;44931.00;5089415;28;20432;-64
2023/07/13 12:36:33;;;;;;;13.60;12.17;;;;;;;-143.84;49.85;44911.97;5089685;28;20514;-64
2023/07/13 12:39:12;;;;;;;15.70;11.10;;;;;;;-143.84;50.45;44889.13;5089752;28;20444;-64
2023/07/13 12:41:40;;;;;;;11.63;10.43;;;;;;;-143.84;49.96;44908.16;5089437;28;20445;-64
2023/07/13 12:44:12;;;;;;;11.83;10.67;;;;;;;-143.84;50.30;44929.09;5089370;28;20451;-64
2023/07/13 12:46:40;;;;;;;11.70;10.50;;;;;;;-143.84;50.93;44940.53;5103697;28;20566;-65
2023/07/13 12:49:09;;;;;;;19.13;11.10;;;;;;;-143.84;52.94;44921.50;5109688;28;20922;-65
2023/07/13 12:51:39;;;;;;;16.83;10.00;;;;;;;-143.84;53.35;44934.81;5109701;28;21310;-65
2023/07/13 12:54:17;;;;;;;18.67;10.87;;;;;;;-143.84;52.48;44913.88;5107967;28;20444;-65
2023/07/13 12:56:45;;;;;;;24.70;10.60;;;;;;;-143.84;51.90;44931.00;5096336;28;20448;-65
2023/07/13 12:59:20;;;;;;;11.97;10.67;;;;;;;-143.84;54.35;44917.69;5100092;28;20436;-65
2023/07/13 13:01:50;;;;;;;12.47;9.50;;;;;;;-143.84;51.89;44946.25;5104330;28;20451;-65
2023/07/13 13:04:21;;;;;;;13.23;11.23;;;;;;;-143.84;52.53;44934.81;5100548;28;20463;-65
2023/07/13 13:06:48;;;;;;;11.37;10.37;;;;;;;-143.84;54.89;44923.41;5103921;28;20459;-65
2023/07/13 13:09:18;;;;;;;19.93;11.20;;;;;;;-143.84;52.78;44929.09;5099061;28;21138;-65
2023/07/13 13:11:45;;;;;;;11.40;10.20;;;;;;;-143.84;54.28;44915.78;5102347;28;20519;-65
2023/07/13 13:14:12;;;;;;;11.40;10.23;;;;;;;-143.84;53.86;44944.34;5100647;28;20455;-65
2023/07/13 13:16:47;;;;;;;14.00;10.77;;;;;;;-143.84;54.64;44938.63;5107079;28;20509;-65
2023/07/13 13:19:18;;;;;;;14.60;11.30;;;;;;;-143.84;52.10;44931.00;5103239;28;20450;-65
2023/07/13 13:21:47;;;;;;;36.27;12.87;;;;;;;-143.84;52.27;44923.41;5107246;28;20534;-65
2023/07/13 13:24:16;;;;;;;17.30;11.30;;;;;;;-143.84;50.76;44940.53;5103139;28;20960;-65
2023/07/13 13:26:45;;;;;;;15.33;11.10;;;;;;;-143.84;52.27;44911.97;5105428;28;20453;-65
2023/07/13 13:29:17;;;;;;;13.30;11.17;;;;;;;-143.84;53.21;44919.59;5104117;28;20527;-65
2023/07/13 13:31:45;;;;;;;12.73;11.33;;;;;;;-143.84;53.95;44946.25;5102254;28;20484;-65
2023/07/13 13:34:13;;;;;;;12.53;10.77;;;;;;;-143.84;53.80;44934.81;5101007;28;20558;-65
2023/07/13 13:36:41;;;;;;;16.10;12.10;;;;;;;-143.84;53.55;44931.00;5107531;28;20479;-65
2023/07/13 13:39:21;;;;;;;12.93;11.37;;;;;;;-143.84;53.63;44927.19;5103435;28;20496;-65
2023/07/13 13:41:48;;;;;;;17.63;12.33;;;;;;;-143.84;54.86;44929.09;5103958;28;20448;-65
2023/07/13 13:44:17;;;;;;;13.43;11.37;;;;;;;-143.84;52.40;44953.88;5101733;28;20451;-65
2023/07/13 13:46:47;;;;;;;20.40;10.40;;;;;;;-143.84;54.46;44950.06;5089946;28;20472;-65
2023/07/13 13:49:18;;;;;;;22.47;11.50;;;;;;;-143.84;55.60;44938.63;5080058;28;21000;-65
2023/07/13 13:51:45;;;;;;;12.37;11.17;;;;;;;-143.84;53.20;44934.81;5083967;28;20524;-65
2023/07/13 13:54:16;;;;;;;15.43;11.80;;;;;;;-143.84;53.24;44934.81;5081947;28;20456;-65
2023/07/13 13:56:44;;;;;;;12.37;10.70;;;;;;;-143.84;51.87;44934.81;5078218;28;20523;-65
2023/07/13 13:59:11;;;;;;;19.03;11.60;;;;;;;-143.84;53.82;44915.78;5083791;28;20538;-65
2023/07/13 14:01:39;;;;;;;15.37;11.50;;;;;;;-143.84;54.39;44940.53;5084229;28;20950;-64
2023/07/13 14:04:08;;;;;;;12.40;11.00;;;;;;;-143.84;53.53;44957.66;5086466;28;20834;-64
2023/07/13 14:06:35;;;;;;;24.93;13.37;;;;;;;-143.84;56.71;44929.09;5083294;28;20459;-64
2023/07/13 14:09:03;;;;;;;20.90;12.20;;;;;;;-143.84;55.47;44936.72;5082315;28;20475;-64
2023/07/13 14:11:33;;;;;;;12.40;11.10;;;;;;;-143.84;56.59;44940.53;5076200;28;21013;-64
2023/07/13 14:14:03;;;;;;;13.33;12.10;;;;;;;-143.84;57.68;44934.81;5076535;28;20448;-64
2023/07/13 14:16:32;;;;;;;16.53;11.97;;;;;;;-143.84;55.31;44923.41;5079568;28;20445;-65
2023/07/13 14:19:00;;;;;;;12.80;11.50;;;;;;;-143.84;55.16;44951.97;5087073;28;20450;-64
2023/07/13 14:21:29;;;;;;;12.33;11.23;;;;;;;-143.84;53.98;44971.00;5084355;28;20459;-65
2023/07/13 14:23:57;;;;;;;14.57;10.70;;;;;;;-143.84;54.17;44932.91;5086004;28;21027;-65
2023/07/13 14:26:27;;;;;;;13.93;11.60;;;;;;;-143.84;54.89;44931.00;5089361;28;20432;-65
2023/07/13 14:28:58;;;;;;;16.17;12.00;;;;;;;-143.84;52.84;44967.19;5087517;28;20451;-65
2023/07/13 14:31:28;;;;;;;14.60;12.73;;;;;;;-143.84;54.67;44950.06;5088768;28;20486;-65
2023/07/13 14:33:56;;;;;;;13.50;10.60;;;;;;;-143.84;52.15;44917.69;5086230;28;20487;-65
2023/07/13 14:36:29;;;;;;;13.87;12.27;;;;;;;-143.84;53.09;44908.16;5084795;28;20452;-64
2023/07/13 14:38:56;;;;;;;13.47;12.07;;;;;;;-143.84;51.26;44923.41;5085352;28;20518;-64
2023/07/13 14:41:24;;;;;;;13.53;12.13;;;;;;;-143.84;51.35;44950.06;5088599;28;20474;-64
2023/07/13 14:43:51;;;;;;;19.43;12.10;;;;;;;-143.84;52.13;44967.19;5085777;28;20949;-64
2023/07/13 14:46:29;;;;;;;24.17;11.50;;;;;;;-143.84;52.33;44946.25;5097874;28;20600;-65
2023/07/13 14:49:04;;;;;;;13.80;12.40;;;;;;;-143.84;51.72;44932.91;5106654;28;20462;-64
2023/07/13 14:51:32;;;;;;;16.67;11.40;;;;;;;-143.84;50.58;44919.59;5108472;28;20485;-65
2023/07/13 14:54:03;;;;;;;15.00;11.37;;;;;;;-143.84;50.96;44959.56;5106863;28;20554;-65
2023/07/13 15:27:25;;;;;;;15.83;14.00;;;;;;;-143.84;52.67;44961.47;5099904;28;20424;-65
2023/07/13 15:29:52;;;;;;;17.83;13.53;;;;;;;-143.84;54.80;44950.06;5106301;28;20455;-64
2023/07/13 15:32:19;;;;;;;20.00;14.33;;;;;;;-143.84;56.05;44961.47;5104101;28;20534;-64
2023/07/13 15:34:47;;;;;;;15.33;13.67;;;;;;;-143.84;55.21;44951.97;5109255;28;20512;-65
